Time;durP1;ratioP1;P1;durP2;ratioP2;P2;SDS_P1;SDS_P2;PMS_P1;PMS_P2;Temp;Humidity;BMP_temperature;BMP_pressure;BME280_temperature;BME280_humidity;BME280_pressure;Samples;Min_cycle;Max_cycle;Signal;HPM_P1;HPM_P2
2021/09/02 04:32:10;;;;;;;7.93;6.57;;;8.90;99.90;;;;;;5328164;23;20530;-79
2021/09/02 04:34:39;;;;;;;8.50;6.90;;;8.90;99.90;;;;;;5025970;28;20418;-79
2021/09/02 04:37:05;;;;;;;9.70;7.80;;;8.90;99.90;;;;;;5014967;28;20200;-79
2021/09/02 04:39:31;;;;;;;10.73;7.50;;;8.90;99.90;;;;;;5011131;28;20427;-79
2021/09/02 04:41:57;;;;;;;13.00;7.67;;;8.90;99.90;;;;;;5015075;28;20515;-80
2021/09/02 04:44:22;;;;;;;8.20;6.13;;;8.90;99.90;;;;;;5015289;28;20273;-79
2021/09/02 04:46:48;;;;;;;11.67;7.33;;;8.90;99.90;;;;;;5013575;28;20191;-77
2021/09/02 04:49:13;;;;;;;14.50;7.37;;;8.80;99.90;;;;;;5013124;28;20246;-80
2021/09/02 04:51:39;;;;;;;7.53;5.73;;;8.90;99.90;;;;;;5012640;28;20746;-78
2021/09/02 04:54:04;;;;;;;9.40;7.50;;;8.90;99.90;;;;;;5012756;28;20218;-79
2021/09/02 04:56:30;;;;;;;9.63;7.70;;;8.90;99.90;;;;;;5013223;28;20212;-79
2021/09/02 04:58:55;;;;;;;8.40;7.10;;;8.90;99.90;;;;;;5012436;28;20169;-79
2021/09/02 05:01:21;;;;;;;9.93;7.13;;;8.80;99.90;;;;;;5012506;28;20196;-79
2021/09/02 05:03:47;;;;;;;10.90;6.80;;;8.90;99.90;;;;;;5011928;28;20184;-79
2021/09/02 05:06:12;;;;;;;10.50;7.40;;;8.90;99.90;;;;;;5013022;28;20220;-79
2021/09/02 05:08:38;;;;;;;10.20;7.10;;;8.90;99.90;;;;;;5012565;28;20243;-77
2021/09/02 05:11:03;;;;;;;9.37;8.00;;;8.90;99.90;;;;;;5012818;28;20208;-79
2021/09/02 05:13:29;;;;;;;10.57;8.37;;;8.90;99.90;;;;;;5011992;28;20263;-80
2021/09/02 05:15:54;;;;;;;13.67;8.27;;;9.00;99.90;;;;;;5012998;28;20281;-79
2021/09/02 05:18:20;;;;;;;12.23;7.73;;;9.00;99.90;;;;;;5012032;28;20200;-79
2021/09/02 05:20:45;;;;;;;8.80;7.90;;;9.00;99.90;;;;;;5013097;28;20243;-79
2021/09/02 05:23:11;;;;;;;13.50;7.87;;;9.10;99.90;;;;;;4993927;28;20173;-79
2021/09/02 05:25:36;;;;;;;10.97;7.87;;;9.10;99.90;;;;;;5012842;28;20641;-79
2021/09/02 05:28:02;;;;;;;12.20;8.03;;;9.20;99.90;;;;;;5012047;28;20646;-79
2021/09/02 05:30:27;;;;;;;9.97;7.20;;;9.30;99.90;;;;;;5012372;28;20234;-77
2021/09/02 05:32:53;;;;;;;14.93;8.30;;;9.50;99.90;;;;;;4994423;28;20573;-79
2021/09/02 05:35:19;;;;;;;11.17;8.40;;;9.70;99.90;;;;;;5012336;28;20252;-79
2021/09/02 05:37:45;;;;;;;9.47;8.20;;;9.90;99.90;;;;;;4994934;28;20647;-79
2021/09/02 05:40:11;;;;;;;9.87;8.23;;;10.10;99.90;;;;;;5012464;28;20417;-79
2021/09/02 05:42:37;;;;;;;9.47;8.47;;;10.20;99.90;;;;;;5012701;28;20243;-79
2021/09/02 05:45:04;;;;;;;11.00;8.13;;;10.50;99.90;;;;;;5011356;28;20414;-80
2021/09/02 05:47:29;;;;;;;10.60;7.90;;;10.70;99.90;;;;;;5012000;28;20197;-79
2021/09/02 05:49:55;;;;;;;9.20;7.70;;;10.90;99.90;;;;;;5012781;28;20536;-79
2021/09/02 05:52:20;;;;;;;10.93;8.97;;;11.10;99.90;;;;;;5011749;28;20206;-78
2021/09/02 05:54:52;;;;;;;10.20;8.20;;;11.30;99.90;;;;;;5008691;28;20186;-79
2021/09/02 05:57:17;;;;;;;13.37;8.80;;;11.50;99.90;;;;;;5011745;28;20559;-80
2021/09/02 05:59:42;;;;;;;12.00;8.33;;;11.80;99.90;;;;;;5012077;28;20394;-77
2021/09/02 06:02:08;;;;;;;11.20;8.97;;;12.20;99.90;;;;;;5012613;28;20198;-78
2021/09/02 06:04:33;;;;;;;9.60;8.53;;;12.50;99.90;;;;;;4995017;28;20642;-80
2021/09/02 06:06:59;;;;;;;12.40;9.10;;;12.70;99.90;;;;;;5011634;28;20207;-79
2021/09/02 06:09:24;;;;;;;13.40;9.37;;;13.00;99.90;;;;;;5011631;28;20633;-79
2021/09/02 06:11:50;;;;;;;8.97;7.97;;;13.20;99.90;;;;;;5012490;28;20199;-80
2021/09/02 06:14:15;;;;;;;16.00;9.63;;;13.60;99.90;;;;;;5012301;28;20664;-79
2021/09/02 06:16:41;;;;;;;9.77;8.53;;;14.00;99.90;;;;;;5013193;28;20207;-79
2021/09/02 06:19:06;;;;;;;15.83;9.90;;;14.70;99.90;;;;;;5012521;28;20183;-82
2021/09/02 06:21:32;;;;;;;11.77;10.17;;;15.20;99.90;;;;;;5012972;28;20443;-81
2021/09/02 06:23:57;;;;;;;13.70;10.10;;;15.70;99.90;;;;;;5012904;28;20170;-81
2021/09/02 06:26:23;;;;;;;12.20;10.40;;;16.20;99.90;;;;;;5011867;28;20186;-81
2021/09/02 06:28:48;;;;;;;13.50;8.73;;;16.60;99.90;;;;;;5010739;28;20547;-81
2021/09/02 06:31:14;;;;;;;13.87;11.10;;;17.00;99.90;;;;;;5010361;28;20209;-81
2021/09/02 06:33:40;;;;;;;14.83;9.57;;;17.40;99.90;;;;;;5010631;28;20174;-81
2021/09/02 06:36:05;;;;;;;12.70;9.37;;;17.80;99.90;;;;;;5014648;28;20202;-81
2021/09/02 06:38:31;;;;;;;11.10;9.93;;;18.00;99.90;;;;;;5014563;28;20186;-81
2021/09/02 06:40:56;;;;;;;11.50;9.70;;;18.20;99.90;;;;;;5014848;28;20198;-79
2021/09/02 06:43:22;;;;;;;11.53;9.27;;;18.40;99.90;;;;;;5014597;28;20175;-81
2021/09/02 06:45:48;;;;;;;12.50;8.93;;;18.50;99.90;;;;;;5015034;28;20182;-81
2021/09/02 06:48:13;;;;;;;12.00;9.67;;;18.70;99.90;;;;;;5014103;28;20182;-81
2021/09/02 06:50:39;;;;;;;11.33;8.67;;;18.90;99.90;;;;;;5014571;28;20183;-81
2021/09/02 06:53:04;;;;;;;11.57;9.00;;;18.70;99.90;;;;;;5014440;28;20225;-83
2021/09/02 06:55:30;;;;;;;14.43;8.93;;;18.50;99.90;;;;;;5015643;28;20206;-82
2021/09/02 06:57:55;;;;;;;12.17;9.13;;;18.70;99.90;;;;;;5016302;28;20177;-78
2021/09/02 07:00:21;;;;;;;10.60;8.97;;;18.80;99.90;;;;;;5016000;28;20171;-80
2021/09/02 07:02:46;;;;;;;10.80;8.57;;;19.20;99.90;;;;;;5015684;28;20206;-80
2021/09/02 07:05:12;;;;;;;12.80;8.60;;;19.40;99.90;;;;;;5015346;28;20186;-80
2021/09/02 07:07:38;;;;;;;14.07;8.27;;;19.30;99.90;;;;;;5015588;28;20345;-80
2021/09/02 07:10:05;;;;;;;11.87;8.40;;;19.50;99.90;;;;;;5015697;28;20217;-81
2021/09/02 07:12:31;;;;;;;11.03;8.50;;;19.30;99.90;;;;;;5015628;28;20199;-81
2021/09/02 07:14:56;;;;;;;12.13;10.10;;;19.40;99.90;;;;;;5015483;28;20428;-79
2021/09/02 07:17:22;;;;;;;14.50;8.80;;;19.90;99.90;;;;;;5014725;28;20270;-83
2021/09/02 07:19:47;;;;;;;13.23;9.20;;;20.20;99.90;;;;;;5015902;28;20241;-81
2021/09/02 07:22:13;;;;;;;11.17;7.93;;;20.50;99.90;;;;;;5015796;28;20698;-81
2021/09/02 07:24:38;;;;;;;12.20;9.30;;;20.90;99.90;;;;;;5016265;28;20186;-81
2021/09/02 07:27:04;;;;;;;17.67;8.33;;;20.90;99.90;;;;;;5015273;28;20557;-79
2021/09/02 07:29:30;;;;;;;11.87;8.00;;;21.10;99.90;;;;;;4998480;28;20178;-81
2021/09/02 07:31:56;;;;;;;11.20;7.37;;;21.20;99.90;;;;;;5015886;28;20691;-79
2021/09/02 07:34:21;;;;;;;11.73;7.90;;;21.30;99.90;;;;;;5016184;28;20424;-82
2021/09/02 07:36:47;;;;;;;9.33;8.40;;;21.30;99.90;;;;;;5016479;28;20202;-81
2021/09/02 07:39:14;;;;;;;10.83;8.53;;;21.60;99.90;;;;;;5015263;28;20179;-81
2021/09/02 07:41:40;;;;;;;10.77;8.97;;;21.50;99.90;;;;;;5016085;28;20258;-82
2021/09/02 07:44:06;;;;;;;8.90;7.93;;;21.60;99.90;;;;;;5016386;28;20448;-82
2021/09/02 07:46:31;;;;;;;8.90;8.00;;;21.70;99.90;;;;;;5014647;28;20852;-81
2021/09/02 07:48:57;;;;;;;9.33;8.43;;;21.60;99.90;;;;;;5014489;28;20186;-79
2021/09/02 07:51:22;;;;;;;12.13;8.53;;;21.70;99.90;;;;;;5014660;28;20210;-82
2021/09/02 07:53:48;;;;;;;12.07;8.80;;;21.60;99.90;;;;;;5014251;28;20563;-81
2021/09/02 07:56:14;;;;;;;10.10;7.50;;;21.50;99.90;;;;;;5015005;28;20698;-79
2021/09/02 07:58:41;;;;;;;12.27;7.53;;;21.50;99.90;;;;;;5014909;28;20175;-81
2021/09/02 08:01:10;;;;;;;14.07;8.53;;;21.80;99.90;;;;;;5014451;28;20210;-82
2021/09/02 08:03:37;;;;;;;9.10;8.20;;;21.90;99.90;;;;;;5014126;28;20948;-78
2021/09/02 08:06:02;;;;;;;11.80;8.43;;;21.60;99.90;;;;;;5015294;28;20421;-81
2021/09/02 08:08:28;;;;;;;13.40;8.67;;;21.90;99.90;;;;;;5013549;28;20418;-80
2021/09/02 08:10:54;;;;;;;10.67;8.57;;;22.20;99.90;;;;;;4997583;28;20668;-81
2021/09/02 08:13:19;;;;;;;11.80;7.73;;;22.50;99.90;;;;;;5014984;28;20179;-81
2021/09/02 08:15:45;;;;;;;11.43;7.30;;;22.60;99.90;;;;;;5015278;28;20285;-81
2021/09/02 08:18:11;;;;;;;13.83;8.17;;;22.90;99.90;;;;;;5014130;28;20258;-81
2021/09/02 08:20:36;;;;;;;12.27;8.50;;;22.70;99.90;;;;;;5014735;28;20181;-78
2021/09/02 08:23:03;;;;;;;10.00;7.97;;;23.00;99.90;;;;;;5015023;28;20194;-82
2021/09/02 08:25:28;;;;;;;13.97;8.80;;;23.00;99.90;;;;;;5014890;28;20582;-81
2021/09/02 08:27:54;;;;;;;9.63;7.40;;;23.10;99.90;;;;;;5013506;28;20421;-81
2021/09/02 08:30:22;;;;;;;12.70;8.00;;;23.30;99.90;;;;;;5013854;28;20595;-82
2021/09/02 08:32:48;;;;;;;10.60;7.27;;;23.40;99.90;;;;;;5013654;28;20210;-81
2021/09/02 08:35:26;;;;;;;9.07;7.70;;;23.60;99.90;;;;;;5013806;28;20453;-82
2021/09/02 08:37:57;;;;;;;7.57;6.63;;;23.70;99.90;;;;;;5014171;28;20416;-81
2021/09/02 08:40:26;;;;;;;9.57;8.40;;;23.80;99.90;;;;;;5014413;28;20417;-81
2021/09/02 08:42:55;;;;;;;9.30;7.30;;;23.90;99.90;;;;;;5014217;28;20425;-81
2021/09/02 08:45:22;;;;;;;9.13;7.30;;;24.20;99.90;;;;;;5014666;28;20797;-81
2021/09/02 08:47:49;;;;;;;8.90;6.60;;;24.20;99.90;;;;;;5013468;28;20413;-79
2021/09/02 08:50:20;;;;;;;10.03;8.23;;;24.30;99.90;;;;;;4996239;28;20480;-82
2021/09/02 08:52:45;;;;;;;9.83;7.30;;;24.10;99.90;;;;;;4996653;28;20445;-81
2021/09/02 08:55:11;;;;;;;12.03;7.00;;;24.30;99.90;;;;;;5013050;28;20503;-81
2021/09/02 08:57:37;;;;;;;9.83;7.97;;;24.70;99.90;;;;;;5012848;28;20246;-79
2021/09/02 09:00:04;;;;;;;9.13;7.63;;;24.90;99.90;;;;;;5013413;28;20202;-82
2021/09/02 09:02:31;;;;;;;10.60;7.37;;;25.20;99.90;;;;;;5012147;28;20429;-81
2021/09/02 09:05:05;;;;;;;9.03;7.03;;;25.30;99.90;;;;;;5012761;28;20416;-81
2021/09/02 09:07:33;;;;;;;7.73;6.77;;;25.20;99.90;;;;;;5012288;28;20464;-82
2021/09/02 09:09:59;;;;;;;7.43;6.67;;;25.20;99.90;;;;;;4994653;28;20782;-83
2021/09/02 09:12:39;;;;;;;13.73;7.10;;;25.50;99.90;;;;;;5012540;28;20429;-81
2021/09/02 09:15:07;;;;;;;7.57;6.50;;;25.30;99.90;;;;;;5013358;28;20463;-82
2021/09/02 09:17:33;;;;;;;16.80;6.83;;;25.20;99.90;;;;;;5011697;28;20445;-83
2021/09/02 09:19:59;;;;;;;11.23;6.37;;;25.60;99.90;;;;;;5011645;28;20416;-82
2021/09/02 09:22:28;;;;;;;6.77;5.63;;;25.80;99.90;;;;;;5011180;28;20210;-82
2021/09/02 09:25:03;;;;;;;7.40;6.07;;;26.10;99.90;;;;;;5011407;28;20213;-82
2021/09/02 09:27:35;;;;;;;8.83;6.10;;;26.60;99.90;;;;;;5010813;28;20418;-82
2021/09/02 09:30:03;;;;;;;7.00;5.90;;;26.70;99.90;;;;;;5011710;28;20771;-82
2021/09/02 09:32:42;;;;;;;5.57;5.07;;;26.80;99.90;;;;;;5011566;28;20480;-83
2021/09/02 09:35:15;;;;;;;8.37;6.40;;;26.40;99.90;;;;;;5012114;28;20998;-82
2021/09/02 09:37:41;;;;;;;8.07;5.80;;;26.40;99.90;;;;;;5011017;28;20421;-82
2021/09/02 09:40:22;;;;;;;9.80;6.73;;;26.40;99.90;;;;;;5011444;28;20409;-81
2021/09/02 09:42:54;;;;;;;7.33;6.27;;;26.30;99.90;;;;;;5012441;28;20480;-82
2021/09/02 09:45:38;;;;;;;14.43;5.80;;;25.90;99.90;;;;;;5012248;28;20421;-82
2021/09/02 09:48:14;;;;;;;6.40;5.67;;;25.70;99.90;;;;;;5011097;28;20432;-82
2021/09/02 09:50:39;;;;;;;6.00;5.40;;;25.40;99.90;;;;;;5012066;28;20471;-83
2021/09/02 09:53:26;;;;;;;9.53;5.13;;;25.40;99.90;;;;;;5011917;28;20417;-82
2021/09/02 09:55:56;;;;;;;7.17;6.47;;;25.80;99.90;;;;;;5012359;28;20268;-83
2021/09/02 09:58:22;;;;;;;6.97;5.63;;;26.20;99.90;;;;;;5011058;28;20421;-82
2021/09/02 10:00:54;;;;;;;5.97;5.40;;;26.70;99.90;;;;;;5011435;28;20438;-82
2021/09/02 10:03:21;;;;;;;5.77;4.93;;;27.30;99.90;;;;;;5011569;28;20432;-84
2021/09/02 10:05:50;;;;;;;5.90;5.40;;;27.10;99.90;;;;;;5011502;28;20437;-82
2021/09/02 10:08:17;;;;;;;5.87;5.23;;;27.40;99.90;;;;;;5011521;28;20803;-80
2021/09/02 10:10:43;;;;;;;6.27;5.70;;;27.30;99.90;;;;;;5015101;28;20456;-82
2021/09/02 10:13:11;;;;;;;11.90;5.57;;;27.30;99.90;;;;;;5015258;28;20417;-83
2021/09/02 10:15:36;;;;;;;7.80;5.87;;;27.60;99.90;;;;;;5014961;28;20287;-81
2021/09/02 10:18:03;;;;;;;8.20;6.70;;;27.50;99.90;;;;;;5014663;28;20417;-82
2021/09/02 10:20:33;;;;;;;8.40;5.97;;;27.90;99.90;;;;;;5014720;28;20228;-80
2021/09/02 10:23:01;;;;;;;6.37;5.77;;;28.00;99.90;;;;;;5015031;28;20752;-82
2021/09/02 10:25:35;;;;;;;6.07;5.53;;;27.80;99.90;;;;;;5014649;28;20461;-82
2021/09/02 10:28:22;;;;;;;6.67;4.70;;;27.70;99.90;;;;;;5013987;28;20778;-83
2021/09/02 10:30:51;;;;;;;5.70;5.23;;;27.90;99.90;;;;;;5015261;28;20444;-82
2021/09/02 10:33:36;;;;;;;6.07;5.53;;;27.80;99.90;;;;;;5014698;28;20436;-83
2021/09/02 10:36:10;;;;;;;6.37;5.30;;;27.60;99.90;;;;;;5014884;28;20832;-83
2021/09/02 10:38:37;;;;;;;5.07;4.50;;;28.30;99.90;;;;;;5014437;28;20948;-79
2021/09/02 10:41:03;;;;;;;6.30;5.00;;;28.70;99.90;;;;;;5014729;28;20437;-83
2021/09/02 10:43:46;;;;;;;7.23;5.63;;;28.90;99.90;;;;;;5014837;28;20928;-83
2021/09/02 10:46:32;;;;;;;5.50;5.10;;;28.20;99.90;;;;;;5014782;28;20417;-82
2021/09/02 10:49:22;;;;;;;6.23;5.63;;;27.70;99.90;;;;;;5014797;28;20417;-83
2021/09/02 10:52:03;;;;;;;5.77;5.30;;;28.00;99.90;;;;;;5014193;28;20436;-82
2021/09/02 10:54:38;;;;;;;5.80;5.23;;;28.00;99.90;;;;;;5014747;28;20823;-82
2021/09/02 10:57:04;;;;;;;7.93;5.30;;;27.60;99.90;;;;;;5014368;28;20457;-82
2021/09/02 10:59:52;;;;;;;9.20;5.37;;;27.10;99.90;;;;;;5013708;28;20437;-82
2021/09/02 11:02:18;;;;;;;5.87;5.07;;;26.60;99.90;;;;;;5014125;28;20235;-81
2021/09/02 11:04:45;;;;;;;5.70;4.93;;;26.80;99.90;;;;;;5014795;28;20448;-80
2021/09/02 11:07:11;;;;;;;4.63;4.20;;;27.00;99.90;;;;;;5014361;28;20197;-81
2021/09/02 11:09:39;;;;;;;8.27;6.07;;;27.10;99.90;;;;;;5014153;28;20512;-80
2021/09/02 11:12:09;;;;;;;6.80;6.10;;;27.10;99.90;;;;;;5014762;28;20198;-81
2021/09/02 11:14:44;;;;;;;6.20;5.00;;;27.10;99.90;;;;;;5015350;28;20521;-81
2021/09/02 11:17:10;;;;;;;6.60;5.90;;;27.00;99.90;;;;;;5014658;28;20464;-82
2021/09/02 11:19:39;;;;;;;13.80;5.97;;;26.50;99.90;;;;;;5014558;28;20418;-79
2021/09/02 11:22:14;;;;;;;6.20;5.13;;;26.40;99.90;;;;;;5015671;28;20437;-82
2021/09/02 11:24:45;;;;;;;5.70;5.20;;;26.50;99.90;;;;;;5015156;28;20410;-81
2021/09/02 11:27:15;;;;;;;5.90;5.40;;;26.70;99.90;;;;;;5014639;28;20422;-81
2021/09/02 11:29:40;;;;;;;6.40;5.80;;;26.60;99.90;;;;;;4996576;28;20480;-82
2021/09/02 11:32:11;;;;;;;6.20;5.60;;;26.80;99.90;;;;;;5014099;28;20461;-81
2021/09/02 11:34:40;;;;;;;7.10;5.40;;;26.90;99.90;;;;;;5013908;28;20178;-80
2021/09/02 11:37:07;;;;;;;8.03;5.57;;;26.70;99.90;;;;;;5014431;28;20465;-82
2021/09/02 11:39:35;;;;;;;5.67;5.07;;;26.50;99.90;;;;;;5013940;28;20953;-82
2021/09/02 11:42:09;;;;;;;7.00;6.40;;;26.40;99.90;;;;;;5013746;28;20441;-81
2021/09/02 11:44:36;;;;;;;6.90;6.17;;;25.90;99.90;;;;;;4997022;28;20954;-81
2021/09/02 11:47:08;;;;;;;4.83;4.43;;;25.80;99.90;;;;;;5014794;28;20779;-81
2021/09/02 11:49:34;;;;;;;4.77;4.37;;;25.60;99.90;;;;;;5012637;28;20413;-81
2021/09/02 11:52:00;;;;;;;5.80;5.20;;;25.40;99.90;;;;;;5013946;28;20437;-81
2021/09/02 11:54:27;;;;;;;5.57;5.07;;;24.90;99.90;;;;;;5013864;28;20440;-81
2021/09/02 11:56:53;;;;;;;5.10;4.60;;;24.70;99.90;;;;;;5012977;28;20468;-81
2021/09/02 11:59:20;;;;;;;4.83;4.33;;;24.80;99.90;;;;;;5012227;28;20757;-79
2021/09/02 12:01:50;;;;;;;4.73;4.40;;;24.80;99.90;;;;;;5013337;28;20465;-82
2021/09/02 12:04:24;;;;;;;5.10;4.47;;;24.60;99.90;;;;;;4995631;28;20429;-79
2021/09/02 12:06:53;;;;;;;4.53;4.03;;;24.40;99.90;;;;;;5013278;28;20418;-81
2021/09/02 12:09:20;;;;;;;5.03;4.63;;;24.40;99.90;;;;;;5012937;28;20856;-79
2021/09/02 12:11:48;;;;;;;4.90;4.43;;;24.50;99.90;;;;;;5012896;28;20576;-80
2021/09/02 12:14:19;;;;;;;4.50;4.10;;;24.50;99.90;;;;;;5012941;28;20529;-81
2021/09/02 12:16:45;;;;;;;7.50;4.30;;;24.50;99.90;;;;;;5013557;28;20991;-82
2021/09/02 12:19:11;;;;;;;4.40;4.00;;;24.30;99.90;;;;;;4994728;28;20414;-81
2021/09/02 12:21:37;;;;;;;5.30;3.80;;;24.10;99.90;;;;;;5013467;28;20440;-80
2021/09/02 12:24:11;;;;;;;10.30;5.20;;;24.00;99.90;;;;;;5013629;28;20175;-82
2021/09/02 12:27:00;;;;;;;5.67;4.23;;;24.20;99.90;;;;;;4995166;28;20958;-79
2021/09/02 12:29:26;;;;;;;4.43;4.03;;;24.20;99.90;;;;;;5012813;28;20410;-81
2021/09/02 12:31:54;;;;;;;5.53;5.03;;;24.30;99.90;;;;;;5012735;28;21045;-80
2021/09/02 12:34:22;;;;;;;6.53;5.80;;;24.00;99.90;;;;;;5014302;28;20418;-81
2021/09/02 12:37:03;;;;;;;6.80;4.67;;;24.20;99.90;;;;;;4996394;28;20998;-81
2021/09/02 12:39:31;;;;;;;4.73;4.30;;;24.30;99.90;;;;;;5014193;28;20796;-81
2021/09/02 12:42:02;;;;;;;6.33;4.70;;;24.50;99.90;;;;;;5014147;28;20440;-79
2021/09/02 12:44:35;;;;;;;6.67;4.57;;;24.40;99.90;;;;;;5013625;28;20409;-81
2021/09/02 12:47:12;;;;;;;4.80;4.30;;;24.30;99.90;;;;;;5013807;28;20468;-82
2021/09/02 12:49:37;;;;;;;7.10;4.50;;;24.30;99.90;;;;;;5014733;28;20791;-80
2021/09/02 12:52:15;;;;;;;5.80;5.00;;;24.20;99.90;;;;;;5020224;28;20438;-81
2021/09/02 12:55:16;;;;;;;4.80;4.37;;;24.40;99.90;;;;;;5024320;28;20210;-82
2021/09/02 12:57:51;;;;;;;5.03;4.53;;;24.40;99.90;;;;;;5015657;28;20413;-83
2021/09/02 13:00:24;;;;;;;5.47;4.80;;;24.30;99.90;;;;;;5015826;28;20409;-80
2021/09/02 13:02:52;;;;;;;5.37;4.53;;;24.20;99.90;;;;;;5015374;28;20438;-82
2021/09/02 13:05:19;;;;;;;5.33;4.83;;;23.90;99.90;;;;;;5015003;28;20440;-81
2021/09/02 13:07:56;;;;;;;4.50;4.10;;;24.00;99.90;;;;;;5014230;28;20405;-81
2021/09/02 13:10:24;;;;;;;4.63;4.20;;;23.90;99.90;;;;;;5014123;28;20413;-81
2021/09/02 13:12:51;;;;;;;5.10;4.63;;;24.00;99.90;;;;;;5014355;28;20970;-82
2021/09/02 13:15:17;;;;;;;6.20;4.97;;;24.10;99.90;;;;;;5015357;28;20489;-79
2021/09/02 13:17:43;;;;;;;4.93;4.53;;;24.00;99.90;;;;;;4996805;28;20465;-80
2021/09/02 13:20:09;;;;;;;4.67;4.20;;;24.00;99.90;;;;;;4997009;28;20181;-81
2021/09/02 13:22:36;;;;;;;4.90;4.43;;;24.00;99.90;;;;;;5014739;28;20529;-82
2021/09/02 13:25:03;;;;;;;5.07;4.30;;;24.10;99.90;;;;;;5014225;28;20413;-81
2021/09/02 13:27:28;;;;;;;6.07;5.10;;;24.10;99.90;;;;;;5014155;28;20504;-82
2021/09/02 13:29:53;;;;;;;7.53;5.00;;;24.00;99.90;;;;;;5013885;28;20841;-81
2021/09/02 13:32:19;;;;;;;11.30;4.60;;;23.80;99.90;;;;;;5014271;28;20574;-82
2021/09/02 13:34:46;;;;;;;5.30;4.80;;;23.70;99.90;;;;;;5013896;28;20175;-81
2021/09/02 13:37:11;;;;;;;5.03;4.53;;;23.70;99.90;;;;;;5014407;28;20759;-81
2021/09/02 13:39:37;;;;;;;7.63;5.63;;;23.70;99.90;;;;;;5013526;28;20505;-79
2021/09/02 13:42:03;;;;;;;5.30;4.80;;;23.70;99.90;;;;;;5014654;28;20289;-80
2021/09/02 13:44:29;;;;;;;8.33;5.07;;;23.70;99.90;;;;;;5016821;28;20203;-81
2021/09/02 13:46:56;;;;;;;10.63;5.00;;;23.80;99.90;;;;;;5018413;28;20409;-81
2021/09/02 13:49:22;;;;;;;5.10;4.70;;;23.80;99.90;;;;;;5017572;28;20656;-80
2021/09/02 13:51:50;;;;;;;6.07;4.33;;;23.80;99.90;;;;;;5017696;28;20511;-82
2021/09/02 13:54:16;;;;;;;5.00;4.53;;;23.80;99.90;;;;;;4999797;28;20226;-80
2021/09/02 13:56:42;;;;;;;5.57;4.70;;;23.80;99.90;;;;;;5017797;28;20465;-79
2021/09/02 13:59:07;;;;;;;6.10;4.87;;;23.80;99.90;;;;;;5017900;28;20757;-82
2021/09/02 14:01:33;;;;;;;5.20;4.70;;;23.80;99.90;;;;;;5017691;28;20195;-81
2021/09/02 14:03:59;;;;;;;4.50;4.10;;;23.80;99.90;;;;;;5017770;28;20170;-82
2021/09/02 14:06:24;;;;;;;6.07;4.60;;;23.80;99.90;;;;;;5018212;28;20186;-81
2021/09/02 14:08:50;;;;;;;12.00;5.00;;;23.70;99.90;;;;;;5016967;28;20617;-80
2021/09/02 14:11:16;;;;;;;7.30;4.40;;;23.70;99.90;;;;;;5017112;28;20234;-80
2021/09/02 14:13:44;;;;;;;7.37;5.50;;;23.70;99.90;;;;;;5016791;28;20221;-79
2021/09/02 14:16:10;;;;;;;4.93;3.83;;;23.80;99.90;;;;;;5017056;28;20566;-80
2021/09/02 14:18:36;;;;;;;10.53;4.27;;;23.80;99.90;;;;;;5016833;28;20440;-81
2021/09/02 14:21:02;;;;;;;4.93;4.27;;;23.70;99.90;;;;;;5016899;28;20198;-82
2021/09/02 14:23:28;;;;;;;5.20;3.93;;;23.80;99.90;;;;;;5017639;28;20457;-81
2021/09/02 14:25:54;;;;;;;14.43;4.67;;;23.70;99.90;;;;;;5018229;28;20835;-81
2021/09/02 14:28:22;;;;;;;4.47;4.07;;;23.70;99.90;;;;;;5016554;28;20175;-81
2021/09/02 14:30:50;;;;;;;4.63;4.27;;;23.70;99.90;;;;;;5018055;28;20206;-81
2021/09/02 14:33:16;;;;;;;5.17;4.33;;;23.70;99.90;;;;;;5018436;28;21065;-81
2021/09/02 14:35:41;;;;;;;5.20;3.93;;;23.70;99.90;;;;;;5018049;28;20457;-79
2021/09/02 14:38:07;;;;;;;5.53;3.97;;;23.60;99.90;;;;;;5015994;28;20436;-82
2021/09/02 14:40:32;;;;;;;4.83;4.33;;;23.50;99.90;;;;;;5017449;28;20179;-80
2021/09/02 14:42:58;;;;;;;6.17;3.57;;;23.60;99.90;;;;;;5016878;28;20174;-81
2021/09/02 14:45:23;;;;;;;4.03;3.73;;;23.60;99.90;;;;;;4998373;28;20183;-81
2021/09/02 14:47:49;;;;;;;4.47;4.07;;;23.60;99.90;;;;;;5015509;28;20648;-81
2021/09/02 14:50:16;;;;;;;9.43;4.63;;;23.60;99.90;;;;;;5015789;28;20202;-81
2021/09/02 14:52:42;;;;;;;6.60;4.47;;;23.50;99.90;;;;;;5015531;28;20197;-83
2021/09/02 14:55:08;;;;;;;3.83;3.50;;;23.50;99.90;;;;;;5014492;28;20489;-81
2021/09/02 14:57:34;;;;;;;4.77;4.37;;;23.40;99.90;;;;;;5015070;28;20198;-81
2021/09/02 14:59:59;;;;;;;5.10;4.13;;;23.40;99.90;;;;;;5015558;28;20778;-80
2021/09/02 15:02:25;;;;;;;4.10;3.80;;;23.40;99.90;;;;;;5015495;28;20195;-81
2021/09/02 15:04:50;;;;;;;6.97;4.10;;;23.40;99.90;;;;;;5015738;28;20794;-80
2021/09/02 15:07:16;;;;;;;14.77;4.40;;;23.40;99.90;;;;;;5015392;28;20174;-79
2021/09/02 15:09:41;;;;;;;5.53;3.87;;;23.50;99.90;;;;;;5014761;28;20170;-82
2021/09/02 15:12:07;;;;;;;4.87;4.20;;;23.40;99.90;;;;;;5014711;28;20289;-80
2021/09/02 15:14:33;;;;;;;6.20;3.87;;;23.40;99.90;;;;;;5015142;28;20200;-81
2021/09/02 15:16:58;;;;;;;4.90;4.40;;;23.40;99.90;;;;;;5014797;28;20202;-81
2021/09/02 15:19:24;;;;;;;4.17;3.77;;;23.30;99.90;;;;;;5014509;28;20171;-81
2021/09/02 15:21:49;;;;;;;5.13;4.00;;;23.20;99.90;;;;;;5014287;28;20213;-81
2021/09/02 15:24:15;;;;;;;5.83;3.40;;;23.20;99.90;;;;;;5013842;28;20660;-80
2021/09/02 15:26:41;;;;;;;4.17;3.60;;;23.20;99.90;;;;;;5014857;28;20614;-81
2021/09/02 15:29:06;;;;;;;4.40;4.00;;;23.20;99.90;;;;;;5013458;28;20179;-81
2021/09/02 15:31:32;;;;;;;4.03;3.73;;;23.20;99.90;;;;;;5014366;28;20226;-82
2021/09/02 15:33:57;;;;;;;7.73;4.23;;;23.10;99.90;;;;;;5013399;28;20609;-80
2021/09/02 15:36:23;;;;;;;3.83;3.53;;;23.10;99.90;;;;;;5013667;28;20213;-81
2021/09/02 15:38:48;;;;;;;5.10;3.77;;;23.20;99.90;;;;;;5013868;28;20258;-81
2021/09/02 15:41:14;;;;;;;4.40;3.40;;;23.10;99.90;;;;;;5013252;28;20191;-81
2021/09/02 15:43:39;;;;;;;4.47;4.07;;;23.10;99.90;;;;;;5013983;28;20167;-82
2021/09/02 15:46:05;;;;;;;6.03;4.40;;;23.20;99.90;;;;;;5014154;28;20178;-82
2021/09/02 15:48:30;;;;;;;4.50;4.00;;;23.20;99.90;;;;;;5013160;28;20179;-81
2021/09/02 15:50:59;;;;;;;3.87;3.60;;;23.10;99.90;;;;;;5013767;28;20194;-79
2021/09/02 15:53:24;;;;;;;10.37;5.00;;;23.10;99.90;;;;;;5013946;28;20547;-79
2021/09/02 15:55:50;;;;;;;7.10;3.93;;;23.10;99.90;;;;;;5013117;28;20465;-82
2021/09/02 15:58:15;;;;;;;4.93;4.10;;;23.00;99.90;;;;;;5012482;28;20191;-82
2021/09/02 16:00:41;;;;;;;9.77;4.50;;;23.00;99.90;;;;;;5013898;28;20172;-82
2021/09/02 16:03:07;;;;;;;5.50;4.83;;;23.00;99.90;;;;;;4996062;28;20178;-81
2021/09/02 16:05:32;;;;;;;4.97;4.50;;;23.00;99.90;;;;;;5013074;28;20652;-82
2021/09/02 16:07:58;;;;;;;5.70;3.90;;;22.90;99.90;;;;;;5012077;28;20261;-81
2021/09/02 16:10:23;;;;;;;5.00;4.57;;;22.90;99.90;;;;;;5013185;28;20187;-82
2021/09/02 16:12:49;;;;;;;5.13;4.13;;;22.90;99.90;;;;;;5013321;28;20198;-82
2021/09/02 16:15:14;;;;;;;4.97;3.93;;;22.90;99.90;;;;;;5013315;28;20195;-81
2021/09/02 16:17:40;;;;;;;5.27;4.77;;;22.80;99.90;;;;;;5013100;28;20179;-80
2021/09/02 16:20:06;;;;;;;4.70;4.30;;;22.80;99.90;;;;;;4995607;28;20185;-81
2021/09/02 16:22:33;;;;;;;3.90;3.60;;;22.70;99.90;;;;;;5016181;28;20199;-81
2021/09/02 16:24:59;;;;;;;5.30;4.53;;;22.80;99.90;;;;;;5012570;28;20414;-81
2021/09/02 16:27:29;;;;;;;5.97;3.80;;;22.80;99.90;;;;;;5012828;28;20417;-80
2021/09/02 16:29:56;;;;;;;4.67;4.17;;;22.70;99.90;;;;;;5012422;28;20182;-80
2021/09/02 16:32:23;;;;;;;4.50;4.10;;;22.70;99.90;;;;;;5012754;28;20464;-81
2021/09/02 16:34:49;;;;;;;4.33;3.97;;;22.70;99.90;;;;;;5012334;28;20805;-80
2021/09/02 16:37:15;;;;;;;4.67;3.70;;;22.60;99.90;;;;;;4994927;28;20559;-81
2021/09/02 16:39:40;;;;;;;4.20;3.83;;;22.60;99.90;;;;;;5012502;28;20544;-81
2021/09/02 16:42:08;;;;;;;5.00;4.53;;;22.60;99.90;;;;;;5012099;28;20194;-80
2021/09/02 16:44:33;;;;;;;4.50;4.10;;;22.60;99.90;;;;;;5012785;28;20177;-80
2021/09/02 16:47:02;;;;;;;6.27;4.70;;;22.60;99.90;;;;;;5012552;28;20410;-81
2021/09/02 16:49:28;;;;;;;5.37;4.87;;;22.50;99.90;;;;;;5012357;28;20589;-80
2021/09/02 16:51:54;;;;;;;7.47;5.53;;;22.50;99.90;;;;;;5013334;28;20437;-81
2021/09/02 16:54:19;;;;;;;4.40;4.10;;;22.40;99.90;;;;;;5012865;28;20422;-82
2021/09/02 16:56:45;;;;;;;8.97;5.27;;;22.40;99.90;;;;;;5012994;28;20225;-80
2021/09/02 16:59:10;;;;;;;5.60;5.10;;;22.40;99.90;;;;;;5012648;28;20189;-80
2021/09/02 17:01:36;;;;;;;7.43;4.37;;;22.30;99.90;;;;;;5011781;28;20198;-78
2021/09/02 17:04:01;;;;;;;5.47;4.70;;;22.30;99.90;;;;;;5013231;28;20549;-80
2021/09/02 17:06:27;;;;;;;5.83;5.27;;;22.30;99.90;;;;;;5013572;28;20175;-81
2021/09/02 17:08:52;;;;;;;5.13;4.73;;;22.20;99.90;;;;;;5014515;28;20211;-80
2021/09/02 17:11:18;;;;;;;4.97;4.47;;;22.20;99.90;;;;;;5013215;28;20198;-81
2021/09/02 17:13:43;;;;;;;6.10;5.20;;;22.20;99.90;;;;;;5014078;28;20187;-80
2021/09/02 17:16:09;;;;;;;5.27;4.77;;;22.10;99.90;;;;;;5013785;28;20206;-80
2021/09/02 17:18:34;;;;;;;5.60;4.77;;;22.00;99.90;;;;;;5012350;28;20233;-82